KOA342 YSSY-YSCB
Flight info
| Callsign | KOA342 |
|---|---|
| Flight time | 0h 31m |
| Altitude | 16000 |
| Route | GROOK1 WOL H65 CB DCT |
| Aircraft | A20N/M-SDE2E3FGHIJ1RWXY/LB1 |
Departure
| Time | 2026-04-22 08:23 |
|---|---|
| Airport | Sydney Kingsford Smith International Airport (YSSY) |
Arrival
| Time | 2026-04-22 08:54 |
|---|---|
| Airport | Canberra Airport (YSCB) |
| Time | Latitude | Longitude | Altitude | Speed | Heading |
|---|---|---|---|---|---|
| 2026-04-22 08:14 | -33.93557 | 151.18010 | 30 ft | 0 kts | 278° |
| 2026-04-22 08:15 | -33.93559 | 151.18023 | 30 ft | 3 kts | 276° |
| 2026-04-22 08:15 | -33.93561 | 151.18051 | 30 ft | 3 kts | 269° |
| 2026-04-22 08:15 | -33.93557 | 151.18065 | 30 ft | 0 kts | 195° |
| 2026-04-22 08:16 | -33.93563 | 151.18063 | 30 ft | 2 kts | 193° |
| 2026-04-22 08:17 | -33.93590 | 151.18058 | 30 ft | 5 kts | 188° |
| 2026-04-22 08:17 | -33.93635 | 151.18055 | 30 ft | 8 kts | 180° |
| 2026-04-22 08:17 | -33.93695 | 151.18061 | 30 ft | 10 kts | 167° |
| 2026-04-22 08:17 | -33.93762 | 151.18064 | 30 ft | 10 kts | 213° |
| 2026-04-22 08:18 | -33.93791 | 151.17985 | 29 ft | 12 kts | 253° |
| 2026-04-22 08:18 | -33.93801 | 151.17944 | 28 ft | 0 kts | 253° |
| 2026-04-22 08:19 | -33.93809 | 151.17911 | 26 ft | 8 kts | 253° |
| 2026-04-22 08:20 | -33.93832 | 151.17821 | 23 ft | 15 kts | 253° |
| 2026-04-22 08:20 | -33.93868 | 151.17678 | 20 ft | 20 kts | 253° |
| 2026-04-22 08:20 | -33.93889 | 151.17591 | 18 ft | 1 kts | 257° |
| 2026-04-22 08:20 | -33.93893 | 151.17569 | 18 ft | 5 kts | 257° |
| 2026-04-22 08:21 | -33.93894 | 151.17566 | 18 ft | 1 kts | 257° |
| 2026-04-22 08:21 | -33.93898 | 151.17546 | 18 ft | 4 kts | 257° |
| 2026-04-22 08:21 | -33.93908 | 151.17494 | 18 ft | 9 kts | 257° |
| 2026-04-22 08:21 | -33.93934 | 151.17424 | 19 ft | 6 kts | 200° |
| 2026-04-22 08:22 | -33.94002 | 151.17439 | 17 ft | 30 kts | 168° |
| 2026-04-22 08:22 | -33.94438 | 151.17548 | 25 ft | 96 kts | 168° |
| 2026-04-22 08:22 | -33.95268 | 151.17765 | 27 ft | 145 kts | 166° |
| 2026-04-22 08:22 | -33.96277 | 151.17966 | 572 ft | 148 kts | 175° |
| 2026-04-22 08:23 | -33.97317 | 151.17889 | 1171 ft | 149 kts | 183° |
| 2026-04-22 08:23 | -33.98347 | 151.17737 | 1846 ft | 153 kts | 183° |
| 2026-04-22 08:23 | -33.99475 | 151.17618 | 2360 ft | 173 kts | 181° |
| 2026-04-22 08:23 | -34.00743 | 151.17545 | 2874 ft | 191 kts | 180° |
| 2026-04-22 08:24 | -34.02160 | 151.17518 | 3327 ft | 216 kts | 176° |
| 2026-04-22 08:24 | -34.03708 | 151.17815 | 3921 ft | 236 kts | 164° |
| 2026-04-22 08:24 | -34.05335 | 151.18378 | 4707 ft | 247 kts | 164° |
| 2026-04-22 08:24 | -34.07003 | 151.18948 | 5663 ft | 251 kts | 165° |
| 2026-04-22 08:25 | -34.08707 | 151.19521 | 6565 ft | 258 kts | 165° |
| 2026-04-22 08:25 | -34.10463 | 151.20107 | 7438 ft | 263 kts | 164° |
| 2026-04-22 08:25 | -34.12225 | 151.20691 | 8443 ft | 263 kts | 163° |
| 2026-04-22 08:25 | -34.14015 | 151.21285 | 9312 ft | 269 kts | 162° |
| 2026-04-22 08:26 | -34.15838 | 151.21893 | 10204 ft | 275 kts | 162° |
| 2026-04-22 08:26 | -34.17760 | 151.22501 | 10660 ft | 297 kts | 169° |
| 2026-04-22 08:26 | -34.19854 | 151.22358 | 11349 ft | 309 kts | 193° |
| 2026-04-22 08:26 | -34.21779 | 151.21141 | 12189 ft | 320 kts | 217° |
| 2026-04-22 08:27 | -34.23346 | 151.19185 | 13003 ft | 327 kts | 226° |
| 2026-04-22 08:27 | -34.24804 | 151.17050 | 13828 ft | 332 kts | 227° |
| 2026-04-22 08:27 | -34.26265 | 151.14866 | 14591 ft | 336 kts | 227° |
| 2026-04-22 08:27 | -34.27758 | 151.12672 | 15311 ft | 340 kts | 226° |
| 2026-04-22 08:28 | -34.29286 | 151.10469 | 15979 ft | 345 kts | 225° |
| 2026-04-22 08:28 | -34.30844 | 151.08253 | 16255 ft | 347 kts | 225° |
| 2026-04-22 08:28 | -34.32426 | 151.06019 | 16343 ft | 357 kts | 225° |
| 2026-04-22 08:28 | -34.34033 | 151.03762 | 16347 ft | 373 kts | 225° |
| 2026-04-22 08:29 | -34.35767 | 151.01315 | 16352 ft | 371 kts | 225° |
| 2026-04-22 08:29 | -34.37466 | 150.99022 | 16352 ft | 369 kts | 220° |
| 2026-04-22 08:29 | -34.39387 | 150.96918 | 16358 ft | 368 kts | 217° |
| 2026-04-22 08:29 | -34.41273 | 150.94884 | 16357 ft | 368 kts | 217° |
| 2026-04-22 08:30 | -34.43177 | 150.92822 | 16360 ft | 368 kts | 217° |
| 2026-04-22 08:30 | -34.45087 | 150.90749 | 16361 ft | 368 kts | 217° |
| 2026-04-22 08:30 | -34.46876 | 150.88805 | 16361 ft | 368 kts | 217° |
| 2026-04-22 08:30 | -34.48138 | 150.87435 | 16360 ft | 368 kts | 217° |
| 2026-04-22 08:31 | -34.50058 | 150.85353 | 16363 ft | 369 kts | 217° |
| 2026-04-22 08:31 | -34.51978 | 150.83271 | 16366 ft | 371 kts | 217° |
| 2026-04-22 08:31 | -34.55763 | 150.79016 | 16375 ft | 374 kts | 223° |
| 2026-04-22 08:32 | -34.57383 | 150.76530 | 16363 ft | 377 kts | 230° |
| 2026-04-22 08:32 | -34.58919 | 150.73947 | 16378 ft | 376 kts | 230° |
| 2026-04-22 08:32 | -34.60450 | 150.71402 | 16378 ft | 375 kts | 229° |
| 2026-04-22 08:32 | -34.61997 | 150.68836 | 16361 ft | 375 kts | 229° |
| 2026-04-22 08:33 | -34.63539 | 150.66282 | 16370 ft | 375 kts | 229° |
| 2026-04-22 08:33 | -34.65079 | 150.63726 | 16375 ft | 375 kts | 229° |
| 2026-04-22 08:33 | -34.66619 | 150.61168 | 16365 ft | 375 kts | 230° |
| 2026-04-22 08:33 | -34.68164 | 150.58602 | 16375 ft | 377 kts | 229° |
| 2026-04-22 08:34 | -34.69697 | 150.56046 | 16379 ft | 374 kts | 230° |
| 2026-04-22 08:34 | -34.71211 | 150.53527 | 16365 ft | 376 kts | 229° |
| 2026-04-22 08:34 | -34.72780 | 150.50910 | 16397 ft | 375 kts | 230° |
| 2026-04-22 08:34 | -34.74310 | 150.48355 | 16393 ft | 375 kts | 230° |
| 2026-04-22 08:35 | -34.75859 | 150.45767 | 16364 ft | 376 kts | 230° |
| 2026-04-22 08:35 | -34.77399 | 150.43194 | 16392 ft | 377 kts | 230° |
| 2026-04-22 08:35 | -34.78943 | 150.40613 | 16374 ft | 377 kts | 230° |
| 2026-04-22 08:35 | -34.80477 | 150.38046 | 16388 ft | 376 kts | 230° |
| 2026-04-22 08:36 | -34.82021 | 150.35461 | 16376 ft | 379 kts | 230° |
| 2026-04-22 08:36 | -34.83574 | 150.32863 | 16389 ft | 380 kts | 230° |
| 2026-04-22 08:36 | -34.85125 | 150.30262 | 16382 ft | 379 kts | 230° |
| 2026-04-22 08:36 | -34.86653 | 150.27698 | 16394 ft | 379 kts | 230° |
| 2026-04-22 08:37 | -34.88174 | 150.25142 | 16386 ft | 379 kts | 230° |
| 2026-04-22 08:37 | -34.89715 | 150.22549 | 16385 ft | 379 kts | 230° |
| 2026-04-22 08:37 | -34.91263 | 150.19943 | 16381 ft | 379 kts | 230° |
| 2026-04-22 08:37 | -34.92811 | 150.17339 | 16384 ft | 379 kts | 230° |
| 2026-04-22 08:38 | -34.94352 | 150.14745 | 16382 ft | 379 kts | 230° |
| 2026-04-22 08:38 | -34.95899 | 150.12138 | 16393 ft | 379 kts | 230° |
| 2026-04-22 08:38 | -34.97433 | 150.09552 | 16308 ft | 379 kts | 230° |
| 2026-04-22 08:38 | -34.98988 | 150.06928 | 15998 ft | 378 kts | 230° |
| 2026-04-22 08:39 | -35.00525 | 150.04332 | 15559 ft | 376 kts | 230° |
| 2026-04-22 08:39 | -35.02046 | 150.01760 | 15039 ft | 375 kts | 231° |
| 2026-04-22 08:39 | -35.03567 | 149.99187 | 14545 ft | 372 kts | 231° |
| 2026-04-22 08:39 | -35.05079 | 149.96637 | 14037 ft | 370 kts | 229° |
| 2026-04-22 08:40 | -35.06757 | 149.94306 | 13537 ft | 363 kts | 222° |
| 2026-04-22 08:40 | -35.08408 | 149.92202 | 13056 ft | 359 kts | 223° |
| 2026-04-22 08:40 | -35.10196 | 149.89903 | 12558 ft | 356 kts | 223° |
| 2026-04-22 08:40 | -35.11893 | 149.87714 | 12057 ft | 353 kts | 223° |
| 2026-04-22 08:41 | -35.13576 | 149.85542 | 11539 ft | 351 kts | 224° |
| 2026-04-22 08:41 | -35.15246 | 149.83384 | 11090 ft | 348 kts | 224° |
| 2026-04-22 08:41 | -35.16891 | 149.81256 | 10624 ft | 345 kts | 224° |
| 2026-04-22 08:41 | -35.18532 | 149.79134 | 10176 ft | 341 kts | 224° |
| 2026-04-22 08:42 | -35.20145 | 149.77047 | 9720 ft | 337 kts | 224° |
| 2026-04-22 08:42 | -35.21758 | 149.74959 | 9256 ft | 333 kts | 224° |
| 2026-04-22 08:42 | -35.23336 | 149.72916 | 8809 ft | 329 kts | 224° |
| 2026-04-22 08:42 | -35.24871 | 149.70926 | 8363 ft | 326 kts | 224° |
| 2026-04-22 08:43 | -35.26442 | 149.68889 | 7924 ft | 322 kts | 225° |
| 2026-04-22 08:43 | -35.27976 | 149.66899 | 7499 ft | 318 kts | 225° |
| 2026-04-22 08:43 | -35.29488 | 149.64936 | 7058 ft | 315 kts | 225° |
| 2026-04-22 08:43 | -35.31003 | 149.62968 | 6624 ft | 312 kts | 225° |
| 2026-04-22 08:44 | -35.32484 | 149.61042 | 6119 ft | 310 kts | 225° |
| 2026-04-22 08:44 | -35.33961 | 149.59121 | 5654 ft | 307 kts | 225° |
| 2026-04-22 08:44 | -35.35405 | 149.57241 | 5423 ft | 310 kts | 225° |
| 2026-04-22 08:44 | -35.36913 | 149.55277 | 5600 ft | 312 kts | 225° |
| 2026-04-22 08:45 | -35.38379 | 149.53371 | 5924 ft | 312 kts | 225° |
| 2026-04-22 08:45 | -35.39882 | 149.51412 | 6009 ft | 310 kts | 225° |
| 2026-04-22 08:45 | -35.41299 | 149.49562 | 6020 ft | 308 kts | 225° |
| 2026-04-22 08:45 | -35.42807 | 149.47589 | 6013 ft | 309 kts | 225° |
| 2026-04-22 08:46 | -35.44285 | 149.45662 | 6013 ft | 309 kts | 225° |
| 2026-04-22 08:46 | -35.45709 | 149.43801 | 6016 ft | 310 kts | 225° |
| 2026-04-22 08:46 | -35.47234 | 149.41806 | 6015 ft | 309 kts | 226° |
| 2026-04-22 08:46 | -35.48688 | 149.39904 | 6016 ft | 310 kts | 226° |
| 2026-04-22 08:47 | -35.50167 | 149.37971 | 6016 ft | 309 kts | 226° |
| 2026-04-22 08:47 | -35.51639 | 149.36044 | 6017 ft | 309 kts | 226° |
| 2026-04-22 08:47 | -35.53111 | 149.34114 | 6011 ft | 310 kts | 226° |
| 2026-04-22 08:47 | -35.54492 | 149.32088 | 5877 ft | 309 kts | 236° |
| 2026-04-22 08:48 | -35.55396 | 149.29667 | 5481 ft | 309 kts | 253° |
| 2026-04-22 08:48 | -35.55743 | 149.27074 | 5018 ft | 310 kts | 266° |
| 2026-04-22 08:48 | -35.55405 | 149.24499 | 4987 ft | 306 kts | 287° |
| 2026-04-22 08:48 | -35.54475 | 149.22112 | 5006 ft | 309 kts | 304° |
| 2026-04-22 08:49 | -35.52955 | 149.20387 | 5007 ft | 289 kts | 332° |
| 2026-04-22 08:49 | -35.51115 | 149.19655 | 5007 ft | 265 kts | 351° |
| 2026-04-22 08:49 | -35.49357 | 149.19466 | 5005 ft | 242 kts | 359° |
| 2026-04-22 08:49 | -35.47761 | 149.19443 | 5013 ft | 219 kts | 0° |
| 2026-04-22 08:50 | -35.46316 | 149.19446 | 4964 ft | 193 kts | 0° |
| 2026-04-22 08:50 | -35.45055 | 149.19444 | 4674 ft | 175 kts | 1° |
| 2026-04-22 08:50 | -35.43898 | 149.19444 | 4404 ft | 158 kts | 1° |
| 2026-04-22 08:50 | -35.42804 | 149.19444 | 4194 ft | 157 kts | 2° |
| 2026-04-22 08:51 | -35.41723 | 149.19421 | 3944 ft | 158 kts | 1° |
| 2026-04-22 08:51 | -35.40643 | 149.19399 | 3660 ft | 153 kts | 3° |
| 2026-04-22 08:51 | -35.39575 | 149.19438 | 3375 ft | 152 kts | 4° |
| 2026-04-22 08:51 | -35.38546 | 149.19431 | 3176 ft | 149 kts | 1° |
| 2026-04-22 08:52 | -35.37511 | 149.19431 | 3059 ft | 149 kts | 5° |
| 2026-04-22 08:52 | -35.36482 | 149.19446 | 2897 ft | 150 kts | 2° |
| 2026-04-22 08:52 | -35.35447 | 149.19429 | 2709 ft | 145 kts | 2° |
| 2026-04-22 08:52 | -35.34403 | 149.19412 | 2498 ft | 151 kts | 4° |
| 2026-04-22 08:53 | -35.33372 | 149.19420 | 2226 ft | 150 kts | 4° |
| 2026-04-22 08:53 | -35.32352 | 149.19433 | 2032 ft | 147 kts | 4° |
| 2026-04-22 08:53 | -35.31315 | 149.19437 | 1886 ft | 146 kts | 3° |
| 2026-04-22 08:53 | -35.30426 | 149.19451 | 1879 ft | 100 kts | 359° |
| 2026-04-22 08:54 | -35.29931 | 149.19452 | 1874 ft | 43 kts | 0° |
| 2026-04-22 08:54 | -35.29737 | 149.19452 | 1878 ft | 26 kts | 0° |
| 2026-04-22 08:54 | -35.29591 | 149.19371 | 1883 ft | 23 kts | 296° |
| 2026-04-22 08:54 | -35.29632 | 149.19229 | 1880 ft | 14 kts | 194° |
| 2026-04-22 08:55 | -35.29752 | 149.19237 | 1877 ft | 34 kts | 182° |
| 2026-04-22 08:55 | -35.30164 | 149.19243 | 1876 ft | 72 kts | 180° |
| 2026-04-22 08:55 | -35.30576 | 149.19239 | 1883 ft | 28 kts | 180° |
| 2026-04-22 08:55 | -35.30646 | 149.19214 | 1879 ft | 14 kts | 235° |
| 2026-04-22 08:56 | -35.30602 | 149.19104 | 1880 ft | 7 kts | 276° |
| 2026-04-22 08:56 | -35.30625 | 149.19062 | 1880 ft | 0 kts | 210° |